Time;durP1;ratioP1;P1;durP2;ratioP2;P2;SDS_P1;SDS_P2;PMS_P1;PMS_P2;Temp;Humidity;BMP_temperature;BMP_pressure;BME280_temperature;BME280_humidity;BME280_pressure;Samples;Min_cycle;Max_cycle;Signal;HPM_P1;HPM_P2
2023/06/05 00:02:17;;;;;;;5.35;4.70;;;11.40;99.90;;;;;;5157131;27;20054;-73
2023/06/05 00:04:43;;;;;;;5.10;4.43;;;11.40;99.90;;;;;;5156985;27;20091;-73
2023/06/05 00:07:09;;;;;;;4.65;4.03;;;11.30;99.90;;;;;;5156586;27;20221;-73
2023/06/05 00:09:35;;;;;;;6.05;5.45;;;11.30;99.90;;;;;;5138854;27;20103;-73
2023/06/05 00:12:02;;;;;;;7.63;4.95;;;11.30;99.90;;;;;;5156966;27;20046;-73
2023/06/05 00:14:28;;;;;;;6.95;5.70;;;11.30;99.90;;;;;;5156698;27;20101;-73
2023/06/05 00:16:56;;;;;;;9.73;5.18;;;11.30;99.90;;;;;;5138473;27;20054;-73
2023/06/05 00:19:21;;;;;;;10.40;5.40;;;11.30;99.90;;;;;;5156820;27;20050;-72
2023/06/05 00:21:50;;;;;;;7.05;4.88;;;11.20;99.90;;;;;;5156583;27;20521;-73
2023/06/05 00:24:16;;;;;;;7.20;6.07;;;11.30;99.90;;;;;;5156803;27;20138;-72
2023/06/05 00:26:41;;;;;;;9.50;5.80;;;11.30;99.90;;;;;;5156905;27;20483;-73
2023/06/05 00:29:07;;;;;;;8.45;5.35;;;11.30;99.90;;;;;;5156439;27;20039;-73
2023/06/05 00:31:33;;;;;;;5.60;4.28;;;11.30;99.90;;;;;;5156409;27;20082;-73
2023/06/05 00:33:59;;;;;;;7.35;5.90;;;11.20;99.90;;;;;;5156587;27;20455;-73
2023/06/05 00:36:24;;;;;;;6.03;5.10;;;11.20;99.90;;;;;;5156638;27;20035;-72
2023/06/05 00:38:50;;;;;;;5.78;5.00;;;11.20;99.90;;;;;;5156510;27;20102;-73
2023/06/05 00:41:17;;;;;;;5.43;4.93;;;11.20;99.90;;;;;;5156029;27;20042;-72
2023/06/05 00:43:42;;;;;;;6.68;4.70;;;11.20;99.90;;;;;;5120706;27;20100;-73
2023/06/05 00:46:08;;;;;;;8.65;4.82;;;11.10;99.90;;;;;;5156231;27;20107;-73
2023/06/05 00:48:34;;;;;;;8.30;5.03;;;11.10;99.90;;;;;;5156048;27;20093;-73
2023/06/05 00:51:00;;;;;;;7.15;4.82;;;11.10;99.90;;;;;;5156646;27;20126;-74
2023/06/05 00:53:27;;;;;;;6.85;5.20;;;11.10;99.90;;;;;;5137533;27;20473;-74
2023/06/05 00:55:54;;;;;;;5.53;4.68;;;11.00;99.90;;;;;;5156284;27;20055;-73
2023/06/05 00:58:20;;;;;;;7.07;5.30;;;11.00;99.90;;;;;;5155166;27;20050;-73
2023/06/05 01:00:49;;;;;;;6.28;5.43;;;11.00;99.90;;;;;;5155994;27;20045;-74
2023/06/05 01:03:16;;;;;;;5.65;4.97;;;11.00;99.90;;;;;;5155905;27;20473;-74
2023/06/05 01:05:43;;;;;;;6.45;5.60;;;11.00;99.90;;;;;;5156099;27;20047;-74
2023/06/05 01:08:12;;;;;;;6.57;4.45;;;10.90;99.90;;;;;;5155578;27;20043;-73
2023/06/05 01:10:38;;;;;;;5.95;4.95;;;10.90;99.90;;;;;;5155641;27;20129;-74
2023/06/05 01:13:17;;;;;;;6.97;5.30;;;10.90;99.90;;;;;;5155755;27;20134;-74
2023/06/05 01:15:44;;;;;;;9.20;5.60;;;10.90;99.90;;;;;;5137343;27;20038;-73
2023/06/05 01:18:10;;;;;;;5.85;5.20;;;10.80;99.90;;;;;;5155503;27;20086;-74
2023/06/05 01:20:38;;;;;;;8.35;5.65;;;10.80;99.90;;;;;;5155630;27;20118;-74
2023/06/05 01:23:07;;;;;;;7.20;5.68;;;10.90;99.90;;;;;;5156087;27;20046;-74
2023/06/05 01:25:36;;;;;;;8.25;5.30;;;10.80;99.90;;;;;;5155351;27;20129;-74
2023/06/05 01:28:18;;;;;;;6.38;4.80;;;10.80;99.90;;;;;;5155292;27;20089;-74
2023/06/05 01:31:01;;;;;;;5.63;4.80;;;10.80;99.90;;;;;;5155280;27;20050;-74
2023/06/05 01:33:44;;;;;;;5.47;4.68;;;10.80;99.90;;;;;;5155936;27;20065;-74
2023/06/05 01:36:14;;;;;;;6.93;4.47;;;10.80;99.90;;;;;;5155618;27;20107;-73
2023/06/05 01:38:42;;;;;;;5.28;4.78;;;10.80;99.90;;;;;;5155055;27;20043;-73
2023/06/05 01:41:10;;;;;;;6.53;4.78;;;10.90;99.90;;;;;;5155308;27;20089;-73
2023/06/05 01:43:36;;;;;;;5.93;4.25;;;10.90;99.90;;;;;;5155440;27;20043;-73
2023/06/05 01:46:06;;;;;;;4.95;4.25;;;10.90;99.90;;;;;;5155579;27;20485;-73
2023/06/05 01:48:32;;;;;;;4.95;3.85;;;10.90;99.90;;;;;;5154702;27;20055;-73
2023/06/05 01:50:59;;;;;;;4.72;3.92;;;11.00;99.90;;;;;;5155196;27;20054;-73
2023/06/05 01:53:27;;;;;;;6.20;4.53;;;11.00;99.90;;;;;;5154766;27;20102;-74
2023/06/05 01:55:57;;;;;;;6.28;4.38;;;11.00;99.90;;;;;;5154745;27;20050;-72
2023/06/05 01:58:26;;;;;;;5.72;4.28;;;11.10;99.90;;;;;;5154697;27;20523;-73
2023/06/05 02:00:53;;;;;;;5.85;4.32;;;11.10;99.90;;;;;;5154658;27;20047;-72
2023/06/05 02:03:20;;;;;;;7.85;5.25;;;11.10;99.90;;;;;;5154732;27;20045;-72
2023/06/05 02:05:46;;;;;;;5.05;4.53;;;11.10;99.90;;;;;;5119366;27;20060;-74
2023/06/05 02:08:13;;;;;;;4.97;4.57;;;11.20;99.90;;;;;;5154552;27;20076;-73
2023/06/05 02:10:44;;;;;;;7.35;4.63;;;11.20;99.90;;;;;;5154367;27;20042;-73
2023/06/05 02:13:10;;;;;;;6.82;4.15;;;11.20;99.90;;;;;;5154795;27;20043;-73
2023/06/05 02:15:36;;;;;;;5.50;3.45;;;11.20;99.90;;;;;;5136506;27;20126;-73
2023/06/05 02:18:04;;;;;;;4.82;4.00;;;11.20;99.90;;;;;;5136295;27;20042;-73
2023/06/05 02:20:31;;;;;;;5.20;4.47;;;11.20;99.90;;;;;;5154234;27;20038;-72
2023/06/05 02:22:57;;;;;;;5.30;3.80;;;11.20;99.90;;;;;;5154579;27;20043;-73
2023/06/05 02:25:25;;;;;;;7.35;4.60;;;11.20;99.90;;;;;;5136134;27;20107;-72
2023/06/05 02:27:51;;;;;;;5.35;4.22;;;11.20;99.90;;;;;;5154341;27;20043;-72
2023/06/05 02:30:17;;;;;;;7.53;4.07;;;11.20;99.90;;;;;;5154093;27;20038;-72
2023/06/05 02:32:43;;;;;;;4.85;4.00;;;11.20;99.90;;;;;;5153996;27;20540;-72
2023/06/05 02:35:13;;;;;;;7.18;4.88;;;11.20;99.90;;;;;;5154177;27;20046;-72
2023/06/05 02:37:46;;;;;;;4.32;3.92;;;11.20;99.90;;;;;;5154043;27;20134;-72
2023/06/05 02:40:13;;;;;;;5.28;4.10;;;11.10;99.90;;;;;;5154156;27;20119;-72
2023/06/05 02:42:40;;;;;;;6.70;4.15;;;11.10;99.90;;;;;;5135912;27;20546;-72
2023/06/05 02:45:10;;;;;;;7.07;4.30;;;11.10;99.90;;;;;;5154115;27;20043;-72
2023/06/05 02:47:36;;;;;;;6.20;3.92;;;11.10;99.90;;;;;;5154408;27;20068;-72
2023/06/05 02:50:02;;;;;;;6.07;4.57;;;11.10;99.90;;;;;;5135434;27;20519;-72
2023/06/05 02:52:28;;;;;;;7.80;5.15;;;11.10;99.90;;;;;;5154748;27;20043;-72
2023/06/05 02:54:53;;;;;;;6.40;4.78;;;11.10;99.90;;;;;;5156679;27;20098;-72
2023/06/05 02:57:19;;;;;;;6.15;4.68;;;11.10;99.90;;;;;;5156204;27;20035;-72
2023/06/05 02:59:45;;;;;;;7.32;5.53;;;11.10;99.90;;;;;;5155384;27;20118;-72
2023/06/05 03:02:11;;;;;;;5.53;4.80;;;11.10;99.90;;;;;;5154715;27;20471;-73
2023/06/05 03:04:40;;;;;;;5.90;4.78;;;11.10;99.90;;;;;;5153881;27;20135;-73
2023/06/05 03:07:07;;;;;;;7.80;6.25;;;11.10;99.90;;;;;;5153926;27;20042;-73
2023/06/05 03:09:33;;;;;;;5.13;4.45;;;11.20;99.90;;;;;;5153776;27;20051;-73
2023/06/05 03:11:59;;;;;;;4.78;3.80;;;11.20;99.90;;;;;;5153886;27;20039;-73
2023/06/05 03:14:26;;;;;;;5.47;4.00;;;11.20;99.90;;;;;;5154121;27;20074;-73
2023/06/05 03:16:53;;;;;;;7.20;5.05;;;11.20;99.90;;;;;;5153803;27;20046;-73
2023/06/05 03:19:19;;;;;;;7.85;4.93;;;11.20;99.90;;;;;;5153687;27;20107;-72
2023/06/05 03:21:45;;;;;;;5.32;4.63;;;11.30;99.90;;;;;;5155512;27;20426;-73
2023/06/05 03:24:14;;;;;;;6.68;4.53;;;11.30;99.90;;;;;;5139641;27;20042;-73
2023/06/05 03:26:40;;;;;;;6.15;4.20;;;11.30;99.90;;;;;;5157837;27;20113;-73
2023/06/05 03:29:07;;;;;;;6.88;4.10;;;11.30;99.90;;;;;;5157771;27;20045;-73
2023/06/05 03:31:33;;;;;;;5.82;4.20;;;11.30;99.90;;;;;;5157758;27;20123;-73
2023/06/05 03:33:59;;;;;;;5.25;4.75;;;11.40;99.90;;;;;;5157673;27;20050;-73
2023/06/05 03:36:27;;;;;;;7.43;4.72;;;11.40;99.90;;;;;;5157914;27;20038;-73
2023/06/05 03:38:53;;;;;;;4.90;4.25;;;11.40;99.90;;;;;;5157524;27;20051;-73
2023/06/05 03:41:19;;;;;;;6.95;4.80;;;11.40;99.90;;;;;;5157585;27;20046;-73
2023/06/05 03:43:46;;;;;;;4.95;4.25;;;11.40;99.90;;;;;;5157568;27;20081;-73
2023/06/05 03:46:17;;;;;;;6.20;4.40;;;11.40;99.90;;;;;;5139239;27;20387;-73
2023/06/05 03:48:43;;;;;;;4.63;3.97;;;11.40;99.90;;;;;;5157302;27;20062;-74
2023/06/05 03:51:09;;;;;;;6.13;4.88;;;11.40;99.90;;;;;;5157363;27;20057;-73
2023/06/05 03:53:39;;;;;;;5.28;4.10;;;11.40;99.90;;;;;;5157616;27;20390;-73
2023/06/05 03:56:05;;;;;;;6.28;3.90;;;11.40;99.90;;;;;;5157818;27;20054;-73
2023/06/05 03:58:31;;;;;;;5.25;4.38;;;11.40;99.90;;;;;;5157172;27;20046;-73
2023/06/05 04:00:57;;;;;;;4.38;3.55;;;11.40;99.90;;;;;;5157195;27;20485;-73
2023/06/05 04:03:25;;;;;;;5.47;4.43;;;11.40;99.90;;;;;;5157716;27;20043;-73
2023/06/05 04:05:50;;;;;;;6.45;5.47;;;11.40;99.90;;;;;;5156992;27;20049;-73
2023/06/05 04:08:16;;;;;;;7.15;4.57;;;11.50;99.90;;;;;;5156814;27;20039;-73
2023/06/05 04:10:42;;;;;;;6.93;4.53;;;11.60;99.90;;;;;;5156905;27;20042;-73
2023/06/05 04:13:08;;;;;;;6.38;4.80;;;11.60;99.90;;;;;;5157627;27;20171;-73
2023/06/05 04:15:33;;;;;;;6.50;4.93;;;11.60;99.90;;;;;;5156817;27;20479;-73
2023/06/05 04:17:59;;;;;;;7.70;4.85;;;11.60;99.90;;;;;;5138394;27;20046;-73
2023/06/05 04:20:25;;;;;;;6.68;6.07;;;11.60;99.90;;;;;;5156718;27;20057;-73
2023/06/05 04:22:51;;;;;;;7.57;6.78;;;11.70;99.90;;;;;;5138668;27;20566;-73
2023/06/05 04:25:17;;;;;;;6.50;5.85;;;11.70;99.90;;;;;;5156713;27;20596;-72
2023/06/05 04:27:44;;;;;;;6.85;5.97;;;11.80;99.90;;;;;;5156796;27;20083;-73
2023/06/05 04:30:12;;;;;;;9.90;7.47;;;11.80;99.90;;;;;;5156597;27;20061;-73
2023/06/05 04:32:38;;;;;;;9.23;7.97;;;11.80;99.90;;;;;;5119974;27;20471;-73
2023/06/05 04:35:10;;;;;;;10.73;8.38;;;11.90;99.90;;;;;;5156226;27;20471;-73
2023/06/05 04:37:37;;;;;;;10.70;8.48;;;11.90;99.90;;;;;;5138231;27;20110;-73
2023/06/05 04:40:09;;;;;;;12.55;10.35;;;11.90;99.90;;;;;;5156134;27;20050;-72
2023/06/05 04:42:36;;;;;;;9.33;8.23;;;11.90;99.90;;;;;;5157108;27;20049;-73
2023/06/05 04:45:10;;;;;;;8.80;7.45;;;12.00;99.90;;;;;;5156355;27;20039;-73
2023/06/05 04:47:36;;;;;;;9.10;8.18;;;12.00;99.90;;;;;;5156425;27;20057;-73
2023/06/05 04:50:04;;;;;;;9.32;7.78;;;12.00;99.90;;;;;;5156592;27;20054;-72
2023/06/05 04:52:31;;;;;;;11.95;7.65;;;12.00;99.90;;;;;;5137647;27;20131;-72
2023/06/05 04:55:03;;;;;;;9.38;6.88;;;12.10;99.90;;;;;;5156021;27;20117;-72
2023/06/05 04:57:29;;;;;;;7.85;7.00;;;12.10;99.90;;;;;;5155932;27;20045;-72
2023/06/05 04:59:56;;;;;;;12.68;7.35;;;12.10;99.90;;;;;;5155929;27;20050;-72
2023/06/05 05:02:24;;;;;;;7.07;6.38;;;12.20;99.90;;;;;;5155903;27;20078;-71
2023/06/05 05:04:49;;;;;;;6.18;5.68;;;12.20;99.90;;;;;;5137664;27;20103;-72
2023/06/05 05:07:16;;;;;;;5.75;5.18;;;12.20;99.90;;;;;;5155832;27;20047;-71
2023/06/05 05:09:43;;;;;;;5.60;4.65;;;12.20;99.90;;;;;;5138217;27;20046;-72
2023/06/05 05:12:09;;;;;;;8.10;4.20;;;12.20;99.90;;;;;;5155661;27;20511;-72
2023/06/05 05:14:35;;;;;;;5.70;4.18;;;12.30;99.90;;;;;;5155903;27;20043;-72
2023/06/05 05:17:02;;;;;;;5.28;3.53;;;12.30;99.90;;;;;;5155294;27;20057;-73
2023/06/05 05:19:28;;;;;;;3.95;3.40;;;12.40;99.90;;;;;;5155275;27;20475;-73
2023/06/05 05:21:54;;;;;;;5.50;3.90;;;12.50;99.90;;;;;;5155128;27;20482;-73
2023/06/05 05:24:20;;;;;;;4.65;3.88;;;12.50;99.90;;;;;;5155738;27;20050;-73
2023/06/05 05:26:46;;;;;;;5.35;4.63;;;12.50;99.90;;;;;;5155408;27;20046;-72
2023/06/05 05:29:12;;;;;;;4.07;3.58;;;12.60;99.90;;;;;;5155812;27;20035;-73
2023/06/05 05:31:37;;;;;;;4.22;3.10;;;12.60;99.90;;;;;;5155536;27;20456;-73
2023/06/05 05:34:03;;;;;;;4.60;3.28;;;12.70;99.90;;;;;;5155255;27;20103;-74
2023/06/05 05:36:29;;;;;;;4.93;3.55;;;12.80;99.90;;;;;;5154849;27;20491;-72
2023/06/05 05:38:55;;;;;;;5.13;3.55;;;12.90;99.90;;;;;;5155002;27;20063;-72
2023/06/05 05:41:21;;;;;;;3.00;2.55;;;12.90;99.90;;;;;;5137258;27;20049;-72
2023/06/05 05:43:47;;;;;;;4.53;3.70;;;13.70;99.90;;;;;;5155249;27;20078;-72
2023/06/05 05:46:13;;;;;;;6.03;3.70;;;13.10;99.90;;;;;;5136701;27;20046;-72
2023/06/05 05:48:39;;;;;;;3.55;3.10;;;13.30;99.90;;;;;;5154959;27;20072;-72
2023/06/05 05:51:08;;;;;;;3.67;2.72;;;13.40;99.90;;;;;;5136519;27;20051;-72
2023/06/05 05:53:35;;;;;;;3.92;3.30;;;13.60;99.90;;;;;;5136277;27;20129;-72
2023/06/05 05:56:01;;;;;;;6.20;3.42;;;13.70;99.90;;;;;;5154832;27;20050;-72
2023/06/05 05:58:26;;;;;;;4.85;3.53;;;13.80;99.90;;;;;;5154385;27;20103;-72
2023/06/05 06:00:53;;;;;;;4.07;3.22;;;13.80;99.90;;;;;;5137184;27;20043;-72
2023/06/05 06:03:19;;;;;;;7.82;4.22;;;13.80;99.90;;;;;;5155225;27;20130;-72
2023/06/05 06:05:45;;;;;;;3.90;3.08;;;13.90;99.90;;;;;;5154767;27;20117;-72
2023/06/05 06:08:11;;;;;;;4.53;3.22;;;14.00;99.90;;;;;;5154859;27;20482;-72
2023/06/05 06:10:37;;;;;;;3.40;2.97;;;14.20;99.90;;;;;;5155082;27;20058;-72
2023/06/05 06:13:04;;;;;;;3.60;2.95;;;14.20;99.90;;;;;;5157573;27;20047;-72
2023/06/05 06:15:31;;;;;;;4.53;3.08;;;14.50;99.90;;;;;;5157221;27;20051;-72
2023/06/05 06:17:57;;;;;;;3.55;2.85;;;14.80;99.90;;;;;;5137861;27;20138;-72
2023/06/05 06:20:23;;;;;;;3.33;2.72;;;15.30;99.90;;;;;;5155347;27;20531;-72
2023/06/05 06:22:49;;;;;;;4.32;2.50;;;16.10;99.90;;;;;;5154566;27;20074;-73
2023/06/05 06:25:16;;;;;;;3.40;2.30;;;16.90;99.90;;;;;;5154858;27;20493;-72
2023/06/05 06:27:43;;;;;;;4.03;2.40;;;17.60;99.90;;;;;;5155042;27;20047;-73
2023/06/05 06:30:10;;;;;;;4.40;2.47;;;17.40;99.90;;;;;;5136149;27;20108;-73
2023/06/05 06:32:35;;;;;;;4.55;2.83;;;17.80;99.90;;;;;;5154492;27;20099;-73
2023/06/05 06:35:01;;;;;;;2.50;2.10;;;18.60;99.90;;;;;;5154307;27;20454;-73
2023/06/05 06:37:28;;;;;;;4.07;2.50;;;18.60;99.90;;;;;;5154560;27;20042;-73
2023/06/05 06:39:53;;;;;;;2.67;2.20;;;19.10;99.90;;;;;;5136549;27;20467;-72
2023/06/05 06:42:19;;;;;;;3.70;2.45;;;19.50;99.90;;;;;;5154333;27;20089;-73
2023/06/05 06:44:45;;;;;;;2.35;1.90;;;20.20;99.90;;;;;;5154712;27;20039;-74
2023/06/05 06:47:11;;;;;;;3.20;2.15;;;20.60;99.90;;;;;;5135796;27;20533;-74
2023/06/05 06:49:37;;;;;;;2.50;2.08;;;20.40;98.80;;;;;;5153750;27;20058;-73
2023/06/05 06:52:03;;;;;;;3.13;2.15;;;20.50;96.20;;;;;;5154130;27;20054;-74
2023/06/05 06:54:29;;;;;;;3.33;2.00;;;20.50;98.80;;;;;;5154025;27;20078;-74
2023/06/05 06:56:56;;;;;;;2.30;1.80;;;20.10;97.90;;;;;;5153465;27;20081;-73
2023/06/05 06:59:22;;;;;;;2.65;1.67;;;20.80;98.20;;;;;;5153830;27;20188;-74
2023/06/05 07:02:11;;;;;;;1.65;1.55;;;21.10;97.00;;;;;;5154020;27;20078;-73
2023/06/05 07:04:38;;;;;;;2.05;1.60;;;21.20;94.90;;;;;;5154037;27;20050;-74
2023/06/05 07:07:04;;;;;;;2.20;1.70;;;20.60;95.50;;;;;;5135771;27;20049;-73
2023/06/05 07:09:30;;;;;;;2.28;1.73;;;20.80;96.90;;;;;;5154107;27;20051;-73
2023/06/05 07:11:56;;;;;;;2.92;1.90;;;20.80;94.60;;;;;;5154078;27;20539;-73
2023/06/05 07:14:22;;;;;;;2.25;2.00;;;20.60;96.30;;;;;;5154298;27;20042;-72
2023/06/05 07:16:49;;;;;;;2.88;2.08;;;20.20;96.40;;;;;;5153803;27;20042;-74
2023/06/05 07:19:15;;;;;;;2.63;1.85;;;20.20;96.50;;;;;;5153478;27;20057;-74
2023/06/05 07:21:41;;;;;;;2.30;2.10;;;19.30;96.90;;;;;;5118570;27;20527;-73
2023/06/05 07:24:08;;;;;;;2.80;1.88;;;18.20;95.80;;;;;;5153721;27;20121;-73
2023/06/05 07:26:33;;;;;;;2.83;1.70;;;17.90;97.70;;;;;;5154302;27;20082;-73
2023/06/05 07:28:59;;;;;;;2.70;2.15;;;17.70;98.00;;;;;;5136021;27;20058;-74
2023/06/05 07:31:25;;;;;;;1.90;1.73;;;17.70;97.80;;;;;;5153775;27;20074;-73
2023/06/05 07:33:51;;;;;;;3.35;2.20;;;18.20;97.10;;;;;;5153660;27;20477;-71
2023/06/05 07:36:17;;;;;;;1.73;1.60;;;18.00;97.10;;;;;;5153599;27;20054;-73
2023/06/05 07:38:43;;;;;;;2.20;2.00;;;18.20;97.40;;;;;;5153145;27;20045;-74
2023/06/05 07:41:11;;;;;;;2.17;1.95;;;18.20;97.50;;;;;;5153716;27;20061;-74
2023/06/05 07:43:39;;;;;;;3.47;1.83;;;18.00;97.10;;;;;;5153531;27;20046;-73
2023/06/05 07:46:05;;;;;;;2.20;1.75;;;18.30;97.50;;;;;;5153522;27;20046;-72
2023/06/05 07:48:31;;;;;;;2.78;1.80;;;18.50;97.40;;;;;;5153495;27;20050;-73
2023/06/05 07:50:57;;;;;;;3.05;1.95;;;18.30;97.20;;;;;;5153414;27;20502;-73
2023/06/05 07:53:23;;;;;;;2.72;1.73;;;18.30;96.80;;;;;;5153815;27;20401;-73
2023/06/05 07:55:50;;;;;;;2.15;1.88;;;19.20;97.20;;;;;;5135332;27;20069;-72
2023/06/05 07:58:16;;;;;;;3.30;2.10;;;19.90;96.00;;;;;;5153673;27;20038;-73
2023/06/05 08:00:43;;;;;;;3.00;2.50;;;20.70;95.80;;;;;;5153404;27;20446;-72
2023/06/05 08:03:10;;;;;;;3.63;2.08;;;20.90;95.10;;;;;;5153366;27;20139;-73
2023/06/05 08:05:35;;;;;;;2.95;2.40;;;21.40;95.10;;;;;;5117859;27;20054;-73
2023/06/05 08:08:02;;;;;;;3.08;2.47;;;21.40;94.30;;;;;;5155787;27;20047;-72
2023/06/05 08:10:28;;;;;;;2.80;2.60;;;21.60;94.00;;;;;;5156810;27;20046;-73
2023/06/05 08:12:53;;;;;;;2.92;2.13;;;21.90;94.30;;;;;;5156903;27;20051;-73
2023/06/05 08:15:19;;;;;;;4.25;2.38;;;21.40;92.10;;;;;;5156914;27;20099;-73
2023/06/05 08:17:45;;;;;;;2.28;1.92;;;21.40;93.60;;;;;;5121485;27;20049;-73
2023/06/05 08:20:11;;;;;;;3.30;2.20;;;21.60;94.00;;;;;;5156888;27;20046;-73
2023/06/05 08:22:40;;;;;;;2.85;2.25;;;21.90;93.70;;;;;;5139022;27;20123;-74
2023/06/05 08:25:06;;;;;;;2.53;2.13;;;21.50;92.90;;;;;;5156795;27;20531;-73
2023/06/05 08:27:32;;;;;;;3.67;2.20;;;21.30;92.90;;;;;;5120875;27;20425;-74
2023/06/05 08:29:59;;;;;;;3.88;2.50;;;21.10;93.40;;;;;;5138360;27;20049;-73
2023/06/05 08:32:25;;;;;;;4.60;2.85;;;21.40;93.20;;;;;;5156976;27;20070;-74
2023/06/05 08:34:51;;;;;;;3.10;2.25;;;21.80;92.90;;;;;;5137880;27;20464;-75
2023/06/05 08:37:17;;;;;;;3.22;2.25;;;22.00;92.90;;;;;;5156767;27;20047;-73
2023/06/05 08:39:42;;;;;;;3.83;2.22;;;22.40;92.40;;;;;;5156538;27;20126;-72
2023/06/05 08:42:10;;;;;;;3.88;2.22;;;22.80;92.20;;;;;;5157059;27;20055;-72
2023/06/05 08:44:36;;;;;;;3.70;2.38;;;22.30;92.00;;;;;;5138075;27;20046;-73
2023/06/05 08:47:03;;;;;;;2.70;2.40;;;22.40;92.10;;;;;;5156832;27;20091;-72
2023/06/05 08:49:29;;;;;;;5.38;3.13;;;22.30;91.70;;;;;;5156666;27;20059;-73
2023/06/05 08:52:03;;;;;;;2.75;2.35;;;22.60;91.70;;;;;;5156329;27;20539;-73
2023/06/05 08:54:36;;;;;;;3.47;2.08;;;23.20;90.30;;;;;;5155948;27;20474;-73
2023/06/05 08:57:04;;;;;;;3.13;2.75;;;23.00;90.60;;;;;;5156475;27;20185;-73
2023/06/05 08:59:30;;;;;;;2.55;2.30;;;22.70;91.30;;;;;;5155901;27;20039;-71
2023/06/05 09:01:59;;;;;;;4.13;2.60;;;23.00;91.30;;;;;;5137571;27;20039;-73
2023/06/05 09:04:29;;;;;;;3.63;2.78;;;22.90;90.20;;;;;;5155862;27;20034;-72
2023/06/05 09:06:57;;;;;;;5.88;2.97;;;22.80;91.40;;;;;;5155967;27;20051;-73
2023/06/05 09:09:23;;;;;;;5.82;3.50;;;22.70;91.10;;;;;;5155863;27;20074;-74
2023/06/05 09:12:02;;;;;;;6.30;2.67;;;22.50;91.40;;;;;;5155950;27;20058;-73
2023/06/05 09:14:27;;;;;;;3.08;2.70;;;22.60;90.00;;;;;;5156083;27;20050;-73
2023/06/05 09:16:53;;;;;;;4.00;2.95;;;22.20;91.40;;;;;;5156163;27;20129;-73
2023/06/05 09:19:24;;;;;;;2.83;2.10;;;21.90;89.50;;;;;;5155173;27;20081;-73
2023/06/05 09:21:54;;;;;;;3.90;2.50;;;22.10;91.20;;;;;;5155313;27;20049;-73
2023/06/05 09:24:24;;;;;;;4.03;3.30;;;22.10;91.00;;;;;;5137533;27;20051;-72
2023/06/05 09:26:59;;;;;;;3.03;2.60;;;22.10;89.40;;;;;;5155323;27;20485;-73
2023/06/05 09:29:36;;;;;;;3.10;2.70;;;21.60;90.50;;;;;;5157500;27;20047;-72
2023/06/05 09:32:15;;;;;;;3.28;2.97;;;21.90;90.90;;;;;;5157538;27;20043;-74
2023/06/05 09:34:41;;;;;;;5.50;3.60;;;21.80;91.20;;;;;;5157780;27;20042;-73
2023/06/05 09:37:10;;;;;;;4.25;3.42;;;21.50;91.30;;;;;;5155980;27;20046;-72
2023/06/05 09:39:38;;;;;;;4.45;3.88;;;21.90;91.00;;;;;;5155461;27;20408;-72
2023/06/05 09:42:04;;;;;;;3.70;3.00;;;21.40;90.80;;;;;;5155132;27;20046;-73
2023/06/05 09:44:32;;;;;;;6.10;3.50;;;21.90;91.60;;;;;;5155640;27;20068;-72
2023/06/05 09:47:01;;;;;;;3.90;2.80;;;21.50;91.40;;;;;;5155016;27;20069;-74
2023/06/05 09:49:30;;;;;;;5.22;3.42;;;22.10;91.10;;;;;;5154794;27;20090;-70
2023/06/05 09:51:58;;;;;;;5.30;3.55;;;21.00;90.60;;;;;;5136467;27;20051;-71
2023/06/05 09:54:29;;;;;;;4.50;3.15;;;20.20;91.20;;;;;;5154835;27;20049;-74
2023/06/05 09:57:01;;;;;;;3.70;3.22;;;21.00;92.00;;;;;;5155033;27;20057;-72
2023/06/05 09:59:32;;;;;;;4.13;3.20;;;21.50;91.80;;;;;;5154785;27;20060;-73
2023/06/05 10:02:04;;;;;;;4.18;2.63;;;21.50;91.40;;;;;;5154400;27;20416;-73
2023/06/05 10:04:37;;;;;;;3.42;2.90;;;21.70;91.80;;;;;;5154662;27;20057;-73
2023/06/05 10:07:04;;;;;;;2.38;2.17;;;21.70;91.80;;;;;;5154756;27;20042;-74
2023/06/05 10:09:31;;;;;;;4.95;3.63;;;22.50;91.70;;;;;;5154676;27;20051;-72
2023/06/05 10:11:58;;;;;;;3.45;3.15;;;22.60;90.40;;;;;;5154646;27;20046;-73
2023/06/05 10:14:24;;;;;;;4.60;2.88;;;22.70;90.90;;;;;;5154670;27;20047;-74
2023/06/05 10:16:54;;;;;;;4.07;2.72;;;23.00;90.70;;;;;;5154463;27;20045;-74
2023/06/05 10:19:20;;;;;;;4.82;3.50;;;22.90;90.30;;;;;;5135926;27;20042;-73
2023/06/05 10:21:49;;;;;;;3.72;3.03;;;22.20;90.70;;;;;;5154320;27;20117;-72
2023/06/05 10:24:33;;;;;;;5.30;3.17;;;22.30;90.90;;;;;;5154647;27;20097;-73
2023/06/05 10:27:05;;;;;;;3.70;3.30;;;22.60;90.30;;;;;;5154420;27;20057;-73
2023/06/05 10:29:46;;;;;;;;;;;22.70;90.20;;;;;;5154842;27;20086;-72
2023/06/05 10:32:23;;;;;;;3.58;2.72;;;22.20;88.90;;;;;;5153475;27;20005;-73
2023/06/05 10:35:04;;;;;;;4.70;2.78;;;22.60;91.20;;;;;;5154306;27;20126;-71
2023/06/05 10:38:00;;;;;;;5.60;2.95;;;22.20;91.10;;;;;;5154236;27;20043;-73
2023/06/05 10:40:27;;;;;;;5.00;4.50;;;22.10;90.90;;;;;;5135864;27;20071;-73
2023/06/05 10:42:52;;;;;;;3.80;2.85;;;22.10;91.30;;;;;;5153884;27;20467;-73
2023/06/05 10:45:31;;;;;;;4.38;3.20;;;22.30;91.60;;;;;;5154031;27;20054;-73
2023/06/05 10:47:57;;;;;;;6.03;3.33;;;21.80;90.90;;;;;;5154518;27;20065;-73
2023/06/05 10:50:27;;;;;;;3.83;3.38;;;21.40;91.60;;;;;;5153473;27;20054;-73
2023/06/05 10:52:54;;;;;;;3.30;3.00;;;21.20;91.00;;;;;;5153988;27;20049;-72
2023/06/05 10:55:22;;;;;;;4.63;3.58;;;20.90;91.90;;;;;;5135896;27;20117;-73
2023/06/05 10:58:02;;;;;;;3.70;2.70;;;21.00;91.70;;;;;;5153622;27;20485;-73
2023/06/05 11:00:29;;;;;;;3.60;2.90;;;21.50;91.60;;;;;;5154030;27;20054;-72
2023/06/05 11:02:55;;;;;;;2.67;2.47;;;21.50;91.30;;;;;;5153975;27;20066;-72
2023/06/05 11:05:21;;;;;;;4.68;3.40;;;21.90;91.30;;;;;;5135528;27;20046;-72
2023/06/05 11:07:47;;;;;;;5.35;3.20;;;21.80;90.90;;;;;;5135440;27;20042;-72
2023/06/05 11:10:20;;;;;;;4.40;3.28;;;21.60;90.70;;;;;;5153695;27;20034;-73
2023/06/05 11:12:46;;;;;;;6.55;3.45;;;21.90;91.10;;;;;;5135769;27;20119;-71
2023/06/05 11:15:13;;;;;;;2.92;2.67;;;21.70;91.00;;;;;;5153604;27;20465;-72
2023/06/05 11:17:46;;;;;;;5.20;3.00;;;21.80;91.10;;;;;;5153941;27;20094;-72
2023/06/05 11:20:24;;;;;;;4.88;3.35;;;21.50;91.40;;;;;;5153530;27;20077;-73
2023/06/05 11:22:52;;;;;;;5.22;3.03;;;21.40;91.50;;;;;;5153679;27;20089;-72
2023/06/05 11:25:20;;;;;;;5.03;3.20;;;21.30;91.10;;;;;;5153397;27;20046;-73
2023/06/05 11:27:49;;;;;;;6.85;3.17;;;21.10;91.40;;;;;;5153859;27;20092;-73
2023/06/05 11:30:16;;;;;;;4.55;2.45;;;21.00;91.60;;;;;;5153657;27;20098;-73
2023/06/05 11:32:42;;;;;;;3.75;3.30;;;21.30;91.50;;;;;;5153586;27;20047;-73
2023/06/05 11:35:11;;;;;;;4.22;3.08;;;21.00;91.30;;;;;;5135804;27;20045;-72
2023/06/05 11:37:39;;;;;;;5.30;3.28;;;21.00;91.60;;;;;;5153664;27;20046;-73
2023/06/05 11:40:09;;;;;;;4.03;2.80;;;20.90;91.50;;;;;;5153447;27;20517;-73
2023/06/05 11:42:38;;;;;;;2.92;2.53;;;21.10;91.70;;;;;;5137124;27;20042;-73
2023/06/05 11:45:10;;;;;;;4.38;3.00;;;21.10;92.20;;;;;;5158028;27;20039;-73
2023/06/05 11:47:36;;;;;;;4.90;3.40;;;20.90;91.80;;;;;;5157604;27;20053;-73
2023/06/05 11:50:13;;;;;;;4.60;3.25;;;20.40;92.20;;;;;;5157426;27;20320;-72
2023/06/05 11:52:40;;;;;;;4.55;3.25;;;20.60;92.50;;;;;;5157388;27;20531;-73
2023/06/05 11:55:21;;;;;;;4.35;3.10;;;20.40;92.50;;;;;;5157719;27;20122;-73
2023/06/05 11:57:48;;;;;;;6.10;3.45;;;20.20;92.70;;;;;;5157340;27;20047;-73
2023/06/05 12:00:16;;;;;;;4.22;3.45;;;20.20;92.70;;;;;;5157530;27;20057;-73
2023/06/05 12:02:46;;;;;;;4.63;3.22;;;20.40;92.60;;;;;;5157054;27;20487;-74
2023/06/05 12:05:12;;;;;;;5.38;3.38;;;20.70;92.40;;;;;;5157071;27;20121;-73
2023/06/05 12:07:39;;;;;;;4.25;3.85;;;20.50;92.50;;;;;;5156946;27;20513;-74
2023/06/05 12:10:07;;;;;;;5.63;3.45;;;20.20;92.80;;;;;;5156846;27;20131;-73
2023/06/05 12:12:52;;;;;;;4.78;3.63;;;20.00;92.90;;;;;;5156754;27;20075;-73
2023/06/05 12:15:20;;;;;;;4.97;3.88;;;20.20;93.80;;;;;;5156861;27;20047;-74
2023/06/05 12:17:56;;;;;;;5.22;3.30;;;20.20;92.80;;;;;;5138991;27;20095;-73
2023/06/05 12:20:22;;;;;;;3.45;2.92;;;20.60;93.00;;;;;;5156487;27;20046;-74
2023/06/05 12:22:49;;;;;;;6.03;3.38;;;20.80;92.70;;;;;;5138121;27;20073;-74
2023/06/05 12:25:22;;;;;;;4.22;2.95;;;20.60;92.70;;;;;;5156661;27;20046;-74
2023/06/05 12:27:52;;;;;;;5.75;3.15;;;20.60;93.20;;;;;;5138414;27;20046;-73
2023/06/05 12:30:19;;;;;;;3.53;3.10;;;20.60;93.10;;;;;;5157056;27;20050;-74
2023/06/05 12:32:45;;;;;;;4.25;3.50;;;20.60;93.00;;;;;;5156925;27;20042;-71
2023/06/05 12:35:22;;;;;;;4.32;3.58;;;20.90;93.30;;;;;;5137988;27;20125;-74
2023/06/05 12:37:49;;;;;;;4.57;2.70;;;20.90;93.20;;;;;;5156693;27;20060;-73
2023/06/05 12:40:20;;;;;;;3.97;3.38;;;20.90;93.10;;;;;;5156718;27;20042;-73
2023/06/05 12:42:48;;;;;;;4.10;3.25;;;20.50;93.40;;;;;;5137764;27;20099;-72
2023/06/05 12:45:14;;;;;;;5.68;3.45;;;20.70;93.40;;;;;;5138688;27;20043;-72
2023/06/05 12:47:41;;;;;;;6.65;3.53;;;20.60;93.30;;;;;;5156993;27;20068;-72
2023/06/05 12:50:11;;;;;;;5.80;3.47;;;20.40;93.50;;;;;;5138586;27;20062;-72
2023/06/05 12:52:38;;;;;;;2.85;2.55;;;20.50;93.30;;;;;;5156745;27;20042;-73